<?xml version="1.0" encoding="UTF-8" standalone="no" ?>
<gpx xmlns="http://www.topografix.com/GPX/1/1" xmlns:xsi="http://www.w3.org/2001/XMLSchema-instance" xsi:schemaLocation="http://www.topografix.com/GPX/1/1 http://www.topografix.com/GPX/1/1/gpx.xsd" version="1.1" creator="VisuGPX - https://www.visugpx.com">
  <metadata>
    <name>11028389-N3 Villeneuve minervois</name>
    <desc><![CDATA[
]]></desc>
  </metadata>
  <trk>
    <name><![CDATA[11028389-N3 Villeneuve minervois]]></name>
    <trkseg>
      <trkpt lat="43.31535" lon="2.46364">
        <ele>200</ele>
        <time>2020-02-19T15:05:48Z</time>
      </trkpt>
      <trkpt lat="43.31485" lon="2.46364">
        <ele>198</ele>
        <time>2020-02-19T15:06:55Z</time>
      </trkpt>
      <trkpt lat="43.3153" lon="2.46241">
        <ele>198</ele>
        <time>2020-02-19T15:09:08Z</time>
      </trkpt>
      <trkpt lat="43.31555" lon="2.46207">
        <ele>199</ele>
        <time>2020-02-19T15:09:55Z</time>
      </trkpt>
      <trkpt lat="43.31609" lon="2.46192">
        <ele>201</ele>
        <time>2020-02-19T15:11:09Z</time>
      </trkpt>
      <trkpt lat="43.3167" lon="2.46193">
        <ele>203</ele>
        <time>2020-02-19T15:12:30Z</time>
      </trkpt>
      <trkpt lat="43.31736" lon="2.46192">
        <ele>207</ele>
        <time>2020-02-19T15:13:58Z</time>
      </trkpt>
      <trkpt lat="43.31751" lon="2.46189">
        <ele>207</ele>
        <time>2020-02-19T15:14:19Z</time>
      </trkpt>
      <trkpt lat="43.31801" lon="2.46167">
        <ele>213</ele>
        <time>2020-02-19T15:15:29Z</time>
      </trkpt>
      <trkpt lat="43.31837" lon="2.46143">
        <ele>217</ele>
        <time>2020-02-19T15:16:22Z</time>
      </trkpt>
      <trkpt lat="43.31943" lon="2.46105">
        <ele>228</ele>
        <time>2020-02-19T15:18:48Z</time>
      </trkpt>
      <trkpt lat="43.31989" lon="2.46094">
        <ele>231</ele>
        <time>2020-02-19T15:19:51Z</time>
      </trkpt>
      <trkpt lat="43.32081" lon="2.46082">
        <ele>237</ele>
        <time>2020-02-19T15:21:54Z</time>
      </trkpt>
      <trkpt lat="43.32139" lon="2.46083">
        <ele>242</ele>
        <time>2020-02-19T15:23:11Z</time>
      </trkpt>
      <trkpt lat="43.32183" lon="2.46096">
        <ele>245</ele>
        <time>2020-02-19T15:24:11Z</time>
      </trkpt>
      <trkpt lat="43.32202" lon="2.46104">
        <ele>247</ele>
        <time>2020-02-19T15:24:38Z</time>
      </trkpt>
      <trkpt lat="43.32224" lon="2.46125">
        <ele>248</ele>
        <time>2020-02-19T15:25:14Z</time>
      </trkpt>
      <trkpt lat="43.32241" lon="2.46135">
        <ele>249</ele>
        <time>2020-02-19T15:25:38Z</time>
      </trkpt>
      <trkpt lat="43.32304" lon="2.46156">
        <ele>254</ele>
        <time>2020-02-19T15:27:05Z</time>
      </trkpt>
      <trkpt lat="43.32337" lon="2.46172">
        <ele>257</ele>
        <time>2020-02-19T15:27:51Z</time>
      </trkpt>
      <trkpt lat="43.32363" lon="2.4618">
        <ele>259</ele>
        <time>2020-02-19T15:28:27Z</time>
      </trkpt>
      <trkpt lat="43.32411" lon="2.46181">
        <ele>262</ele>
        <time>2020-02-19T15:29:31Z</time>
      </trkpt>
      <trkpt lat="43.32423" lon="2.46187">
        <ele>263</ele>
        <time>2020-02-19T15:29:48Z</time>
      </trkpt>
      <trkpt lat="43.32452" lon="2.46241">
        <ele>266</ele>
        <time>2020-02-19T15:30:53Z</time>
      </trkpt>
      <trkpt lat="43.32463" lon="2.46252">
        <ele>267</ele>
        <time>2020-02-19T15:31:11Z</time>
      </trkpt>
      <trkpt lat="43.32475" lon="2.46255">
        <ele>269</ele>
        <time>2020-02-19T15:31:28Z</time>
      </trkpt>
      <trkpt lat="43.32507" lon="2.46247">
        <ele>273</ele>
        <time>2020-02-19T15:32:11Z</time>
      </trkpt>
      <trkpt lat="43.32521" lon="2.46232">
        <ele>274</ele>
        <time>2020-02-19T15:32:35Z</time>
      </trkpt>
      <trkpt lat="43.32557" lon="2.46221">
        <ele>279</ele>
        <time>2020-02-19T15:33:24Z</time>
      </trkpt>
      <trkpt lat="43.32587" lon="2.46221">
        <ele>282</ele>
        <time>2020-02-19T15:34:04Z</time>
      </trkpt>
      <trkpt lat="43.32616" lon="2.4623">
        <ele>285</ele>
        <time>2020-02-19T15:34:44Z</time>
      </trkpt>
      <trkpt lat="43.32637" lon="2.46255">
        <ele>288</ele>
        <time>2020-02-19T15:35:21Z</time>
      </trkpt>
      <trkpt lat="43.32649" lon="2.46276">
        <ele>289</ele>
        <time>2020-02-19T15:35:47Z</time>
      </trkpt>
      <trkpt lat="43.3267" lon="2.46299">
        <ele>291</ele>
        <time>2020-02-19T15:36:23Z</time>
      </trkpt>
      <trkpt lat="43.32703" lon="2.46326">
        <ele>294</ele>
        <time>2020-02-19T15:37:14Z</time>
      </trkpt>
      <trkpt lat="43.32729" lon="2.46363">
        <ele>296</ele>
        <time>2020-02-19T15:38:04Z</time>
      </trkpt>
      <trkpt lat="43.32742" lon="2.46377">
        <ele>297</ele>
        <time>2020-02-19T15:38:26Z</time>
      </trkpt>
      <trkpt lat="43.32761" lon="2.46386">
        <ele>299</ele>
        <time>2020-02-19T15:38:53Z</time>
      </trkpt>
      <trkpt lat="43.32797" lon="2.46393">
        <ele>303</ele>
        <time>2020-02-19T15:39:41Z</time>
      </trkpt>
      <trkpt lat="43.32809" lon="2.464">
        <ele>304</ele>
        <time>2020-02-19T15:39:58Z</time>
      </trkpt>
      <trkpt lat="43.32838" lon="2.46431">
        <ele>308</ele>
        <time>2020-02-19T15:40:47Z</time>
      </trkpt>
      <trkpt lat="43.32852" lon="2.46442">
        <ele>310</ele>
        <time>2020-02-19T15:41:09Z</time>
      </trkpt>
      <trkpt lat="43.32869" lon="2.46452">
        <ele>312</ele>
        <time>2020-02-19T15:41:34Z</time>
      </trkpt>
      <trkpt lat="43.32912" lon="2.46469">
        <ele>316</ele>
        <time>2020-02-19T15:42:33Z</time>
      </trkpt>
      <trkpt lat="43.32933" lon="2.46493">
        <ele>317</ele>
        <time>2020-02-19T15:43:10Z</time>
      </trkpt>
      <trkpt lat="43.32945" lon="2.46512">
        <ele>317</ele>
        <time>2020-02-19T15:43:34Z</time>
      </trkpt>
      <trkpt lat="43.32955" lon="2.46546">
        <ele>319</ele>
        <time>2020-02-19T15:44:10Z</time>
      </trkpt>
      <trkpt lat="43.32962" lon="2.46561">
        <ele>319</ele>
        <time>2020-02-19T15:44:27Z</time>
      </trkpt>
      <trkpt lat="43.32985" lon="2.46594">
        <ele>322</ele>
        <time>2020-02-19T15:45:12Z</time>
      </trkpt>
      <trkpt lat="43.33008" lon="2.46622">
        <ele>324</ele>
        <time>2020-02-19T15:45:53Z</time>
      </trkpt>
      <trkpt lat="43.3302" lon="2.4663">
        <ele>325</ele>
        <time>2020-02-19T15:46:10Z</time>
      </trkpt>
      <trkpt lat="43.33068" lon="2.46633">
        <ele>326</ele>
        <time>2020-02-19T15:47:14Z</time>
      </trkpt>
      <trkpt lat="43.33104" lon="2.46643">
        <ele>328</ele>
        <time>2020-02-19T15:48:03Z</time>
      </trkpt>
      <trkpt lat="43.33172" lon="2.46627">
        <ele>330</ele>
        <time>2020-02-19T15:49:36Z</time>
      </trkpt>
      <trkpt lat="43.33268" lon="2.46646">
        <ele>332</ele>
        <time>2020-02-19T15:51:45Z</time>
      </trkpt>
      <trkpt lat="43.33294" lon="2.46638">
        <ele>334</ele>
        <time>2020-02-19T15:52:21Z</time>
      </trkpt>
      <trkpt lat="43.33363" lon="2.46604">
        <ele>339</ele>
        <time>2020-02-19T15:53:58Z</time>
      </trkpt>
      <trkpt lat="43.33419" lon="2.46548">
        <ele>350</ele>
        <time>2020-02-19T15:55:31Z</time>
      </trkpt>
      <trkpt lat="43.33427" lon="2.46524">
        <ele>353</ele>
        <time>2020-02-19T15:55:56Z</time>
      </trkpt>
      <trkpt lat="43.33428" lon="2.46496">
        <ele>355</ele>
        <time>2020-02-19T15:56:24Z</time>
      </trkpt>
      <trkpt lat="43.33398" lon="2.46445">
        <ele>351</ele>
        <time>2020-02-19T15:57:27Z</time>
      </trkpt>
      <trkpt lat="43.33388" lon="2.4641">
        <ele>352</ele>
        <time>2020-02-19T15:58:04Z</time>
      </trkpt>
      <trkpt lat="43.33384" lon="2.46347">
        <ele>353</ele>
        <time>2020-02-19T15:59:05Z</time>
      </trkpt>
      <trkpt lat="43.33393" lon="2.463">
        <ele>356</ele>
        <time>2020-02-19T15:59:52Z</time>
      </trkpt>
      <trkpt lat="43.33427" lon="2.46261">
        <ele>364</ele>
        <time>2020-02-19T16:00:51Z</time>
      </trkpt>
      <trkpt lat="43.33437" lon="2.46242">
        <ele>366</ele>
        <time>2020-02-19T16:01:14Z</time>
      </trkpt>
      <trkpt lat="43.33436" lon="2.46227">
        <ele>367</ele>
        <time>2020-02-19T16:01:29Z</time>
      </trkpt>
      <trkpt lat="43.33415" lon="2.46184">
        <ele>366</ele>
        <time>2020-02-19T16:02:19Z</time>
      </trkpt>
      <trkpt lat="43.3341" lon="2.46144">
        <ele>366</ele>
        <time>2020-02-19T16:02:58Z</time>
      </trkpt>
      <trkpt lat="43.33415" lon="2.46102">
        <ele>368</ele>
        <time>2020-02-19T16:03:40Z</time>
      </trkpt>
      <trkpt lat="43.33428" lon="2.4608">
        <ele>371</ele>
        <time>2020-02-19T16:04:07Z</time>
      </trkpt>
      <trkpt lat="43.33446" lon="2.46076">
        <ele>374</ele>
        <time>2020-02-19T16:04:32Z</time>
      </trkpt>
      <trkpt lat="43.3347" lon="2.4608">
        <ele>379</ele>
        <time>2020-02-19T16:05:04Z</time>
      </trkpt>
      <trkpt lat="43.33488" lon="2.46086">
        <ele>383</ele>
        <time>2020-02-19T16:05:29Z</time>
      </trkpt>
      <trkpt lat="43.33528" lon="2.4614">
        <ele>388</ele>
        <time>2020-02-19T16:06:43Z</time>
      </trkpt>
      <trkpt lat="43.33595" lon="2.46205">
        <ele>394</ele>
        <time>2020-02-19T16:08:33Z</time>
      </trkpt>
      <trkpt lat="43.3363" lon="2.46255">
        <ele>398</ele>
        <time>2020-02-19T16:09:40Z</time>
      </trkpt>
      <trkpt lat="43.33755" lon="2.46365">
        <ele>413</ele>
        <time>2020-02-19T16:12:58Z</time>
      </trkpt>
      <trkpt lat="43.33814" lon="2.46341">
        <ele>422</ele>
        <time>2020-02-19T16:14:20Z</time>
      </trkpt>
      <trkpt lat="43.33843" lon="2.46324">
        <ele>426</ele>
        <time>2020-02-19T16:15:02Z</time>
      </trkpt>
      <trkpt lat="43.33859" lon="2.46319">
        <ele>428</ele>
        <time>2020-02-19T16:15:24Z</time>
      </trkpt>
      <trkpt lat="43.33898" lon="2.46318">
        <ele>433</ele>
        <time>2020-02-19T16:16:16Z</time>
      </trkpt>
      <trkpt lat="43.33886" lon="2.46278">
        <ele>430</ele>
        <time>2020-02-19T16:16:58Z</time>
      </trkpt>
      <trkpt lat="43.33892" lon="2.46266">
        <ele>429</ele>
        <time>2020-02-19T16:17:12Z</time>
      </trkpt>
      <trkpt lat="43.33901" lon="2.46259">
        <ele>429</ele>
        <time>2020-02-19T16:17:26Z</time>
      </trkpt>
      <trkpt lat="43.33912" lon="2.46255">
        <ele>429</ele>
        <time>2020-02-19T16:17:41Z</time>
      </trkpt>
      <trkpt lat="43.33955" lon="2.46263">
        <ele>428</ele>
        <time>2020-02-19T16:18:39Z</time>
      </trkpt>
      <trkpt lat="43.34023" lon="2.46261">
        <ele>425</ele>
        <time>2020-02-19T16:20:10Z</time>
      </trkpt>
      <trkpt lat="43.34092" lon="2.46247">
        <ele>423</ele>
        <time>2020-02-19T16:21:43Z</time>
      </trkpt>
      <trkpt lat="43.34155" lon="2.46249">
        <ele>422</ele>
        <time>2020-02-19T16:23:07Z</time>
      </trkpt>
      <trkpt lat="43.34217" lon="2.46266">
        <ele>428</ele>
        <time>2020-02-19T16:24:32Z</time>
      </trkpt>
      <trkpt lat="43.34241" lon="2.46276">
        <ele>430</ele>
        <time>2020-02-19T16:25:05Z</time>
      </trkpt>
      <trkpt lat="43.34245" lon="2.4627">
        <ele>429</ele>
        <time>2020-02-19T16:25:13Z</time>
      </trkpt>
      <trkpt lat="43.34247" lon="2.46262">
        <ele>428</ele>
        <time>2020-02-19T16:25:21Z</time>
      </trkpt>
      <trkpt lat="43.34248" lon="2.46237">
        <ele>426</ele>
        <time>2020-02-19T16:25:46Z</time>
      </trkpt>
      <trkpt lat="43.34228" lon="2.46185">
        <ele>424</ele>
        <time>2020-02-19T16:26:43Z</time>
      </trkpt>
      <trkpt lat="43.34213" lon="2.46157">
        <ele>420</ele>
        <time>2020-02-19T16:27:16Z</time>
      </trkpt>
      <trkpt lat="43.34193" lon="2.46128">
        <ele>416</ele>
        <time>2020-02-19T16:27:55Z</time>
      </trkpt>
      <trkpt lat="43.34167" lon="2.46098">
        <ele>411</ele>
        <time>2020-02-19T16:28:40Z</time>
      </trkpt>
      <trkpt lat="43.34117" lon="2.46053">
        <ele>401</ele>
        <time>2020-02-19T16:30:00Z</time>
      </trkpt>
      <trkpt lat="43.34113" lon="2.46043">
        <ele>400</ele>
        <time>2020-02-19T16:30:11Z</time>
      </trkpt>
      <trkpt lat="43.34113" lon="2.46017">
        <ele>401</ele>
        <time>2020-02-19T16:30:36Z</time>
      </trkpt>
      <trkpt lat="43.34122" lon="2.46006">
        <ele>404</ele>
        <time>2020-02-19T16:30:53Z</time>
      </trkpt>
      <trkpt lat="43.34136" lon="2.46001">
        <ele>407</ele>
        <time>2020-02-19T16:31:12Z</time>
      </trkpt>
      <trkpt lat="43.34162" lon="2.46012">
        <ele>413</ele>
        <time>2020-02-19T16:31:48Z</time>
      </trkpt>
      <trkpt lat="43.34174" lon="2.4601">
        <ele>416</ele>
        <time>2020-02-19T16:32:04Z</time>
      </trkpt>
      <trkpt lat="43.34215" lon="2.46019">
        <ele>424</ele>
        <time>2020-02-19T16:33:00Z</time>
      </trkpt>
      <trkpt lat="43.34241" lon="2.46017">
        <ele>430</ele>
        <time>2020-02-19T16:33:34Z</time>
      </trkpt>
      <trkpt lat="43.34255" lon="2.46005">
        <ele>433</ele>
        <time>2020-02-19T16:33:56Z</time>
      </trkpt>
      <trkpt lat="43.3426" lon="2.46006">
        <ele>434</ele>
        <time>2020-02-19T16:34:03Z</time>
      </trkpt>
      <trkpt lat="43.34271" lon="2.46024">
        <ele>436</ele>
        <time>2020-02-19T16:34:26Z</time>
      </trkpt>
      <trkpt lat="43.34276" lon="2.46027">
        <ele>437</ele>
        <time>2020-02-19T16:34:33Z</time>
      </trkpt>
      <trkpt lat="43.3428" lon="2.46038">
        <ele>438</ele>
        <time>2020-02-19T16:34:45Z</time>
      </trkpt>
      <trkpt lat="43.34308" lon="2.46061">
        <ele>445</ele>
        <time>2020-02-19T16:35:29Z</time>
      </trkpt>
      <trkpt lat="43.34322" lon="2.46081">
        <ele>450</ele>
        <time>2020-02-19T16:35:56Z</time>
      </trkpt>
      <trkpt lat="43.34332" lon="2.46089">
        <ele>453</ele>
        <time>2020-02-19T16:36:11Z</time>
      </trkpt>
      <trkpt lat="43.34341" lon="2.46091">
        <ele>453</ele>
        <time>2020-02-19T16:36:23Z</time>
      </trkpt>
      <trkpt lat="43.3435" lon="2.46098">
        <ele>454</ele>
        <time>2020-02-19T16:36:37Z</time>
      </trkpt>
      <trkpt lat="43.34375" lon="2.46149">
        <ele>460</ele>
        <time>2020-02-19T16:37:37Z</time>
      </trkpt>
      <trkpt lat="43.34381" lon="2.46153">
        <ele>461</ele>
        <time>2020-02-19T16:37:46Z</time>
      </trkpt>
      <trkpt lat="43.34405" lon="2.4613">
        <ele>460</ele>
        <time>2020-02-19T16:38:25Z</time>
      </trkpt>
      <trkpt lat="43.34443" lon="2.46119">
        <ele>457</ele>
        <time>2020-02-19T16:39:17Z</time>
      </trkpt>
      <trkpt lat="43.34481" lon="2.46112">
        <ele>451</ele>
        <time>2020-02-19T16:40:08Z</time>
      </trkpt>
      <trkpt lat="43.34515" lon="2.46129">
        <ele>454</ele>
        <time>2020-02-19T16:40:56Z</time>
      </trkpt>
      <trkpt lat="43.34564" lon="2.46122">
        <ele>445</ele>
        <time>2020-02-19T16:42:02Z</time>
      </trkpt>
      <trkpt lat="43.34614" lon="2.46158">
        <ele>443</ele>
        <time>2020-02-19T16:43:17Z</time>
      </trkpt>
      <trkpt lat="43.34646" lon="2.46237">
        <ele>444</ele>
        <time>2020-02-19T16:44:45Z</time>
      </trkpt>
      <trkpt lat="43.34655" lon="2.46272">
        <ele>444</ele>
        <time>2020-02-19T16:45:21Z</time>
      </trkpt>
      <trkpt lat="43.34675" lon="2.46327">
        <ele>440</ele>
        <time>2020-02-19T16:46:21Z</time>
      </trkpt>
      <trkpt lat="43.34701" lon="2.46378">
        <ele>439</ele>
        <time>2020-02-19T16:47:21Z</time>
      </trkpt>
      <trkpt lat="43.34727" lon="2.46408">
        <ele>436</ele>
        <time>2020-02-19T16:48:06Z</time>
      </trkpt>
      <trkpt lat="43.34763" lon="2.46432">
        <ele>433</ele>
        <time>2020-02-19T16:49:00Z</time>
      </trkpt>
      <trkpt lat="43.34863" lon="2.46479">
        <ele>422</ele>
        <time>2020-02-19T16:51:21Z</time>
      </trkpt>
      <trkpt lat="43.34941" lon="2.46532">
        <ele>423</ele>
        <time>2020-02-19T16:53:17Z</time>
      </trkpt>
      <trkpt lat="43.3501" lon="2.46494">
        <ele>396</ele>
        <time>2020-02-19T16:54:56Z</time>
      </trkpt>
      <trkpt lat="43.35073" lon="2.46538">
        <ele>395</ele>
        <time>2020-02-19T16:56:30Z</time>
      </trkpt>
      <trkpt lat="43.35098" lon="2.46617">
        <ele>417</ele>
        <time>2020-02-19T16:57:54Z</time>
      </trkpt>
      <trkpt lat="43.35137" lon="2.46646">
        <ele>420</ele>
        <time>2020-02-19T16:58:53Z</time>
      </trkpt>
      <trkpt lat="43.35197" lon="2.46653">
        <ele>420</ele>
        <time>2020-02-19T17:00:13Z</time>
      </trkpt>
      <trkpt lat="43.35238" lon="2.46663">
        <ele>428</ele>
        <time>2020-02-19T17:01:09Z</time>
      </trkpt>
      <trkpt lat="43.35259" lon="2.46713">
        <ele>445</ele>
        <time>2020-02-19T17:02:05Z</time>
      </trkpt>
      <trkpt lat="43.35311" lon="2.46751">
        <ele>459</ele>
        <time>2020-02-19T17:03:24Z</time>
      </trkpt>
      <trkpt lat="43.35355" lon="2.46812">
        <ele>475</ele>
        <time>2020-02-19T17:04:47Z</time>
      </trkpt>
      <trkpt lat="43.35282" lon="2.46855">
        <ele>487</ele>
        <time>2020-02-19T17:06:33Z</time>
      </trkpt>
      <trkpt lat="43.35396" lon="2.46978">
        <ele>517</ele>
        <time>2020-02-19T17:09:46Z</time>
      </trkpt>
      <trkpt lat="43.35328" lon="2.47021">
        <ele>527</ele>
        <time>2020-02-19T17:11:26Z</time>
      </trkpt>
      <trkpt lat="43.35243" lon="2.47039">
        <ele>532</ele>
        <time>2020-02-19T17:13:21Z</time>
      </trkpt>
      <trkpt lat="43.35237" lon="2.4711">
        <ele>541</ele>
        <time>2020-02-19T17:14:30Z</time>
      </trkpt>
      <trkpt lat="43.35174" lon="2.47094">
        <ele>545</ele>
        <time>2020-02-19T17:15:56Z</time>
      </trkpt>
      <trkpt lat="43.35099" lon="2.47083">
        <ele>552</ele>
        <time>2020-02-19T17:17:36Z</time>
      </trkpt>
      <trkpt lat="43.35047" lon="2.47106">
        <ele>553</ele>
        <time>2020-02-19T17:18:49Z</time>
      </trkpt>
      <trkpt lat="43.35002" lon="2.47096">
        <ele>555</ele>
        <time>2020-02-19T17:19:50Z</time>
      </trkpt>
      <trkpt lat="43.34958" lon="2.47008">
        <ele>554</ele>
        <time>2020-02-19T17:21:34Z</time>
      </trkpt>
      <trkpt lat="43.34878" lon="2.46914">
        <ele>551</ele>
        <time>2020-02-19T17:23:54Z</time>
      </trkpt>
      <trkpt lat="43.34809" lon="2.46852">
        <ele>547</ele>
        <time>2020-02-19T17:25:44Z</time>
      </trkpt>
      <trkpt lat="43.34771" lon="2.46797">
        <ele>544</ele>
        <time>2020-02-19T17:26:58Z</time>
      </trkpt>
      <trkpt lat="43.34709" lon="2.4675">
        <ele>540</ele>
        <time>2020-02-19T17:28:32Z</time>
      </trkpt>
      <trkpt lat="43.34653" lon="2.46698">
        <ele>530</ele>
        <time>2020-02-19T17:30:02Z</time>
      </trkpt>
      <trkpt lat="43.34578" lon="2.46662">
        <ele>517</ele>
        <time>2020-02-19T17:31:48Z</time>
      </trkpt>
      <trkpt lat="43.34547" lon="2.4664">
        <ele>509</ele>
        <time>2020-02-19T17:32:35Z</time>
      </trkpt>
      <trkpt lat="43.34476" lon="2.46674">
        <ele>495</ele>
        <time>2020-02-19T17:34:15Z</time>
      </trkpt>
      <trkpt lat="43.34511" lon="2.46798">
        <ele>504</ele>
        <time>2020-02-19T17:36:24Z</time>
      </trkpt>
      <trkpt lat="43.34509" lon="2.46854">
        <ele>503</ele>
        <time>2020-02-19T17:37:19Z</time>
      </trkpt>
      <trkpt lat="43.34499" lon="2.46964">
        <ele>506</ele>
        <time>2020-02-19T17:39:06Z</time>
      </trkpt>
      <trkpt lat="43.34484" lon="2.47072">
        <ele>506</ele>
        <time>2020-02-19T17:40:53Z</time>
      </trkpt>
      <trkpt lat="43.34374" lon="2.47059">
        <ele>499</ele>
        <time>2020-02-19T17:43:20Z</time>
      </trkpt>
      <trkpt lat="43.34329" lon="2.47069">
        <ele>497</ele>
        <time>2020-02-19T17:44:21Z</time>
      </trkpt>
      <trkpt lat="43.34308" lon="2.47035">
        <ele>496</ele>
        <time>2020-02-19T17:45:05Z</time>
      </trkpt>
      <trkpt lat="43.34286" lon="2.47013">
        <ele>495</ele>
        <time>2020-02-19T17:45:41Z</time>
      </trkpt>
      <trkpt lat="43.34264" lon="2.46995">
        <ele>493</ele>
        <time>2020-02-19T17:46:15Z</time>
      </trkpt>
      <trkpt lat="43.34246" lon="2.46988">
        <ele>491</ele>
        <time>2020-02-19T17:46:40Z</time>
      </trkpt>
      <trkpt lat="43.34212" lon="2.47001">
        <ele>485</ele>
        <time>2020-02-19T17:47:27Z</time>
      </trkpt>
      <trkpt lat="43.34192" lon="2.47034">
        <ele>480</ele>
        <time>2020-02-19T17:48:09Z</time>
      </trkpt>
      <trkpt lat="43.34153" lon="2.47074">
        <ele>474</ele>
        <time>2020-02-19T17:49:14Z</time>
      </trkpt>
      <trkpt lat="43.34093" lon="2.47145">
        <ele>459</ele>
        <time>2020-02-19T17:50:59Z</time>
      </trkpt>
      <trkpt lat="43.33976" lon="2.47142">
        <ele>448</ele>
        <time>2020-02-19T17:53:35Z</time>
      </trkpt>
      <trkpt lat="43.33884" lon="2.4708">
        <ele>440</ele>
        <time>2020-02-19T17:55:52Z</time>
      </trkpt>
      <trkpt lat="43.33832" lon="2.47027">
        <ele>432</ele>
        <time>2020-02-19T17:57:19Z</time>
      </trkpt>
      <trkpt lat="43.33866" lon="2.46947">
        <ele>432</ele>
        <time>2020-02-19T17:58:49Z</time>
      </trkpt>
      <trkpt lat="43.33869" lon="2.46925">
        <ele>431</ele>
        <time>2020-02-19T17:59:10Z</time>
      </trkpt>
      <trkpt lat="43.33854" lon="2.46931">
        <ele>430</ele>
        <time>2020-02-19T17:59:31Z</time>
      </trkpt>
      <trkpt lat="43.33805" lon="2.46926">
        <ele>425</ele>
        <time>2020-02-19T18:00:37Z</time>
      </trkpt>
      <trkpt lat="43.3375" lon="2.4691">
        <ele>419</ele>
        <time>2020-02-19T18:01:52Z</time>
      </trkpt>
      <trkpt lat="43.33731" lon="2.46909">
        <ele>418</ele>
        <time>2020-02-19T18:02:17Z</time>
      </trkpt>
      <trkpt lat="43.33719" lon="2.46912">
        <ele>417</ele>
        <time>2020-02-19T18:02:33Z</time>
      </trkpt>
      <trkpt lat="43.33711" lon="2.46918">
        <ele>417</ele>
        <time>2020-02-19T18:02:45Z</time>
      </trkpt>
      <trkpt lat="43.33703" lon="2.46931">
        <ele>415</ele>
        <time>2020-02-19T18:03:02Z</time>
      </trkpt>
      <trkpt lat="43.337" lon="2.46949">
        <ele>414</ele>
        <time>2020-02-19T18:03:20Z</time>
      </trkpt>
      <trkpt lat="43.33699" lon="2.46971">
        <ele>413</ele>
        <time>2020-02-19T18:03:41Z</time>
      </trkpt>
      <trkpt lat="43.33702" lon="2.47016">
        <ele>411</ele>
        <time>2020-02-19T18:04:25Z</time>
      </trkpt>
      <trkpt lat="43.33707" lon="2.47066">
        <ele>408</ele>
        <time>2020-02-19T18:05:14Z</time>
      </trkpt>
      <trkpt lat="43.33703" lon="2.4708">
        <ele>406</ele>
        <time>2020-02-19T18:05:29Z</time>
      </trkpt>
      <trkpt lat="43.3368" lon="2.47122">
        <ele>401</ele>
        <time>2020-02-19T18:06:20Z</time>
      </trkpt>
      <trkpt lat="43.33671" lon="2.47146">
        <ele>399</ele>
        <time>2020-02-19T18:06:46Z</time>
      </trkpt>
      <trkpt lat="43.33669" lon="2.47172">
        <ele>399</ele>
        <time>2020-02-19T18:07:11Z</time>
      </trkpt>
      <trkpt lat="43.3367" lon="2.47199">
        <ele>399</ele>
        <time>2020-02-19T18:07:38Z</time>
      </trkpt>
      <trkpt lat="43.33669" lon="2.47208">
        <ele>399</ele>
        <time>2020-02-19T18:07:46Z</time>
      </trkpt>
      <trkpt lat="43.33665" lon="2.47219">
        <ele>398</ele>
        <time>2020-02-19T18:07:58Z</time>
      </trkpt>
      <trkpt lat="43.33655" lon="2.47231">
        <ele>395</ele>
        <time>2020-02-19T18:08:16Z</time>
      </trkpt>
      <trkpt lat="43.3359" lon="2.47274">
        <ele>381</ele>
        <time>2020-02-19T18:09:52Z</time>
      </trkpt>
      <trkpt lat="43.33579" lon="2.47277">
        <ele>379</ele>
        <time>2020-02-19T18:10:07Z</time>
      </trkpt>
      <trkpt lat="43.33569" lon="2.47276">
        <ele>378</ele>
        <time>2020-02-19T18:10:21Z</time>
      </trkpt>
      <trkpt lat="43.33557" lon="2.47271">
        <ele>377</ele>
        <time>2020-02-19T18:10:37Z</time>
      </trkpt>
      <trkpt lat="43.33535" lon="2.47259">
        <ele>375</ele>
        <time>2020-02-19T18:11:09Z</time>
      </trkpt>
      <trkpt lat="43.33506" lon="2.47237">
        <ele>371</ele>
        <time>2020-02-19T18:11:53Z</time>
      </trkpt>
      <trkpt lat="43.33495" lon="2.47232">
        <ele>369</ele>
        <time>2020-02-19T18:12:09Z</time>
      </trkpt>
      <trkpt lat="43.33477" lon="2.47235">
        <ele>369</ele>
        <time>2020-02-19T18:12:33Z</time>
      </trkpt>
      <trkpt lat="43.33433" lon="2.4726">
        <ele>368</ele>
        <time>2020-02-19T18:13:36Z</time>
      </trkpt>
      <trkpt lat="43.33409" lon="2.47265">
        <ele>366</ele>
        <time>2020-02-19T18:14:09Z</time>
      </trkpt>
      <trkpt lat="43.33402" lon="2.47263">
        <ele>365</ele>
        <time>2020-02-19T18:14:18Z</time>
      </trkpt>
      <trkpt lat="43.33397" lon="2.47254">
        <ele>365</ele>
        <time>2020-02-19T18:14:29Z</time>
      </trkpt>
      <trkpt lat="43.3339" lon="2.47219">
        <ele>363</ele>
        <time>2020-02-19T18:15:05Z</time>
      </trkpt>
      <trkpt lat="43.33383" lon="2.47214">
        <ele>362</ele>
        <time>2020-02-19T18:15:15Z</time>
      </trkpt>
      <trkpt lat="43.33376" lon="2.47214">
        <ele>361</ele>
        <time>2020-02-19T18:15:24Z</time>
      </trkpt>
      <trkpt lat="43.33367" lon="2.47218">
        <ele>361</ele>
        <time>2020-02-19T18:15:37Z</time>
      </trkpt>
      <trkpt lat="43.3336" lon="2.47226">
        <ele>360</ele>
        <time>2020-02-19T18:15:49Z</time>
      </trkpt>
      <trkpt lat="43.33357" lon="2.47244">
        <ele>361</ele>
        <time>2020-02-19T18:16:07Z</time>
      </trkpt>
      <trkpt lat="43.33352" lon="2.47254">
        <ele>361</ele>
        <time>2020-02-19T18:16:19Z</time>
      </trkpt>
      <trkpt lat="43.33277" lon="2.47296">
        <ele>355</ele>
        <time>2020-02-19T18:18:07Z</time>
      </trkpt>
      <trkpt lat="43.33248" lon="2.473">
        <ele>354</ele>
        <time>2020-02-19T18:18:46Z</time>
      </trkpt>
      <trkpt lat="43.33222" lon="2.47312">
        <ele>352</ele>
        <time>2020-02-19T18:19:23Z</time>
      </trkpt>
      <trkpt lat="43.3321" lon="2.47321">
        <ele>351</ele>
        <time>2020-02-19T18:19:41Z</time>
      </trkpt>
      <trkpt lat="43.33185" lon="2.47354">
        <ele>349</ele>
        <time>2020-02-19T18:20:27Z</time>
      </trkpt>
      <trkpt lat="43.33157" lon="2.47397">
        <ele>346</ele>
        <time>2020-02-19T18:21:23Z</time>
      </trkpt>
      <trkpt lat="43.33144" lon="2.47423">
        <ele>343</ele>
        <time>2020-02-19T18:21:54Z</time>
      </trkpt>
      <trkpt lat="43.33129" lon="2.47442">
        <ele>340</ele>
        <time>2020-02-19T18:22:21Z</time>
      </trkpt>
      <trkpt lat="43.33098" lon="2.47469">
        <ele>336</ele>
        <time>2020-02-19T18:23:10Z</time>
      </trkpt>
      <trkpt lat="43.33045" lon="2.47493">
        <ele>329</ele>
        <time>2020-02-19T18:24:24Z</time>
      </trkpt>
      <trkpt lat="43.33" lon="2.47524">
        <ele>324</ele>
        <time>2020-02-19T18:25:31Z</time>
      </trkpt>
      <trkpt lat="43.32953" lon="2.47545">
        <ele>318</ele>
        <time>2020-02-19T18:26:37Z</time>
      </trkpt>
      <trkpt lat="43.32931" lon="2.47558">
        <ele>316</ele>
        <time>2020-02-19T18:27:09Z</time>
      </trkpt>
      <trkpt lat="43.32921" lon="2.47568">
        <ele>314</ele>
        <time>2020-02-19T18:27:26Z</time>
      </trkpt>
      <trkpt lat="43.32913" lon="2.47579">
        <ele>314</ele>
        <time>2020-02-19T18:27:41Z</time>
      </trkpt>
      <trkpt lat="43.32906" lon="2.47595">
        <ele>313</ele>
        <time>2020-02-19T18:27:59Z</time>
      </trkpt>
      <trkpt lat="43.32873" lon="2.47689">
        <ele>306</ele>
        <time>2020-02-19T18:29:40Z</time>
      </trkpt>
      <trkpt lat="43.32868" lon="2.477">
        <ele>305</ele>
        <time>2020-02-19T18:29:53Z</time>
      </trkpt>
      <trkpt lat="43.32862" lon="2.47706">
        <ele>304</ele>
        <time>2020-02-19T18:30:03Z</time>
      </trkpt>
      <trkpt lat="43.32826" lon="2.4772">
        <ele>301</ele>
        <time>2020-02-19T18:30:53Z</time>
      </trkpt>
      <trkpt lat="43.32818" lon="2.47718">
        <ele>301</ele>
        <time>2020-02-19T18:31:04Z</time>
      </trkpt>
      <trkpt lat="43.3279" lon="2.47753">
        <ele>298</ele>
        <time>2020-02-19T18:31:54Z</time>
      </trkpt>
      <trkpt lat="43.32769" lon="2.47791">
        <ele>294</ele>
        <time>2020-02-19T18:32:41Z</time>
      </trkpt>
      <trkpt lat="43.32744" lon="2.47813">
        <ele>292</ele>
        <time>2020-02-19T18:33:20Z</time>
      </trkpt>
      <trkpt lat="43.32748" lon="2.47826">
        <ele>292</ele>
        <time>2020-02-19T18:33:34Z</time>
      </trkpt>
      <trkpt lat="43.32743" lon="2.47841">
        <ele>291</ele>
        <time>2020-02-19T18:33:50Z</time>
      </trkpt>
      <trkpt lat="43.32726" lon="2.47865">
        <ele>289</ele>
        <time>2020-02-19T18:34:22Z</time>
      </trkpt>
      <trkpt lat="43.32724" lon="2.47876">
        <ele>288</ele>
        <time>2020-02-19T18:34:33Z</time>
      </trkpt>
      <trkpt lat="43.32724" lon="2.47927">
        <ele>286</ele>
        <time>2020-02-19T18:35:23Z</time>
      </trkpt>
      <trkpt lat="43.32506" lon="2.4817">
        <ele>272</ele>
        <time>2020-02-19T18:41:37Z</time>
      </trkpt>
      <trkpt lat="43.32447" lon="2.48233">
        <ele>265</ele>
        <time>2020-02-19T18:43:17Z</time>
      </trkpt>
      <trkpt lat="43.32364" lon="2.48259">
        <ele>258</ele>
        <time>2020-02-19T18:45:11Z</time>
      </trkpt>
      <trkpt lat="43.32344" lon="2.4827">
        <ele>255</ele>
        <time>2020-02-19T18:45:39Z</time>
      </trkpt>
      <trkpt lat="43.32315" lon="2.4828">
        <ele>251</ele>
        <time>2020-02-19T18:46:19Z</time>
      </trkpt>
      <trkpt lat="43.32245" lon="2.48276">
        <ele>244</ele>
        <time>2020-02-19T18:47:53Z</time>
      </trkpt>
      <trkpt lat="43.32104" lon="2.48259">
        <ele>231</ele>
        <time>2020-02-19T18:51:02Z</time>
      </trkpt>
      <trkpt lat="43.32112" lon="2.4813">
        <ele>230</ele>
        <time>2020-02-19T18:53:07Z</time>
      </trkpt>
      <trkpt lat="43.32118" lon="2.48087">
        <ele>230</ele>
        <time>2020-02-19T18:53:50Z</time>
      </trkpt>
      <trkpt lat="43.32129" lon="2.48034">
        <ele>229</ele>
        <time>2020-02-19T18:54:43Z</time>
      </trkpt>
      <trkpt lat="43.32127" lon="2.48009">
        <ele>228</ele>
        <time>2020-02-19T18:55:08Z</time>
      </trkpt>
      <trkpt lat="43.32108" lon="2.47972">
        <ele>227</ele>
        <time>2020-02-19T18:55:52Z</time>
      </trkpt>
      <trkpt lat="43.321" lon="2.47954">
        <ele>226</ele>
        <time>2020-02-19T18:56:12Z</time>
      </trkpt>
      <trkpt lat="43.32081" lon="2.47894">
        <ele>225</ele>
        <time>2020-02-19T18:57:16Z</time>
      </trkpt>
      <trkpt lat="43.32079" lon="2.47877">
        <ele>225</ele>
        <time>2020-02-19T18:57:33Z</time>
      </trkpt>
      <trkpt lat="43.32081" lon="2.47837">
        <ele>226</ele>
        <time>2020-02-19T18:58:11Z</time>
      </trkpt>
      <trkpt lat="43.3208" lon="2.47812">
        <ele>226</ele>
        <time>2020-02-19T18:58:36Z</time>
      </trkpt>
      <trkpt lat="43.32078" lon="2.47802">
        <ele>225</ele>
        <time>2020-02-19T18:58:46Z</time>
      </trkpt>
      <trkpt lat="43.3207" lon="2.47782">
        <ele>225</ele>
        <time>2020-02-19T18:59:08Z</time>
      </trkpt>
      <trkpt lat="43.32062" lon="2.47735">
        <ele>225</ele>
        <time>2020-02-19T18:59:55Z</time>
      </trkpt>
      <trkpt lat="43.32057" lon="2.47719">
        <ele>224</ele>
        <time>2020-02-19T19:00:12Z</time>
      </trkpt>
      <trkpt lat="43.3205" lon="2.47707">
        <ele>224</ele>
        <time>2020-02-19T19:00:27Z</time>
      </trkpt>
      <trkpt lat="43.32013" lon="2.47672">
        <ele>223</ele>
        <time>2020-02-19T19:01:27Z</time>
      </trkpt>
      <trkpt lat="43.31992" lon="2.47629">
        <ele>223</ele>
        <time>2020-02-19T19:02:17Z</time>
      </trkpt>
      <trkpt lat="43.31979" lon="2.4761">
        <ele>223</ele>
        <time>2020-02-19T19:02:42Z</time>
      </trkpt>
      <trkpt lat="43.31975" lon="2.47598">
        <ele>224</ele>
        <time>2020-02-19T19:02:55Z</time>
      </trkpt>
      <trkpt lat="43.3196" lon="2.47518">
        <ele>225</ele>
        <time>2020-02-19T19:04:15Z</time>
      </trkpt>
      <trkpt lat="43.31947" lon="2.47485">
        <ele>226</ele>
        <time>2020-02-19T19:04:52Z</time>
      </trkpt>
      <trkpt lat="43.31939" lon="2.47462">
        <ele>227</ele>
        <time>2020-02-19T19:05:16Z</time>
      </trkpt>
      <trkpt lat="43.31936" lon="2.47439">
        <ele>227</ele>
        <time>2020-02-19T19:05:39Z</time>
      </trkpt>
      <trkpt lat="43.319" lon="2.47435">
        <ele>227</ele>
        <time>2020-02-19T19:06:27Z</time>
      </trkpt>
      <trkpt lat="43.31834" lon="2.47654">
        <ele>220</ele>
        <time>2020-02-19T19:10:17Z</time>
      </trkpt>
      <trkpt lat="43.31805" lon="2.47727">
        <ele>218</ele>
        <time>2020-02-19T19:11:38Z</time>
      </trkpt>
      <trkpt lat="43.31789" lon="2.47823">
        <ele>217</ele>
        <time>2020-02-19T19:13:14Z</time>
      </trkpt>
      <trkpt lat="43.3176" lon="2.47933">
        <ele>215</ele>
        <time>2020-02-19T19:15:07Z</time>
      </trkpt>
      <trkpt lat="43.3173" lon="2.48026">
        <ele>213</ele>
        <time>2020-02-19T19:16:46Z</time>
      </trkpt>
      <trkpt lat="43.31679" lon="2.48142">
        <ele>211</ele>
        <time>2020-02-19T19:18:58Z</time>
      </trkpt>
      <trkpt lat="43.31631" lon="2.48139">
        <ele>213</ele>
        <time>2020-02-19T19:20:02Z</time>
      </trkpt>
      <trkpt lat="43.316" lon="2.48118">
        <ele>213</ele>
        <time>2020-02-19T19:20:48Z</time>
      </trkpt>
      <trkpt lat="43.31551" lon="2.48114">
        <ele>213</ele>
        <time>2020-02-19T19:21:54Z</time>
      </trkpt>
      <trkpt lat="43.31387" lon="2.48157">
        <ele>207</ele>
        <time>2020-02-19T19:25:36Z</time>
      </trkpt>
      <trkpt lat="43.31373" lon="2.48228">
        <ele>206</ele>
        <time>2020-02-19T19:26:48Z</time>
      </trkpt>
      <trkpt lat="43.3118" lon="2.48169">
        <ele>205</ele>
        <time>2020-02-19T19:31:12Z</time>
      </trkpt>
      <trkpt lat="43.31221" lon="2.47947">
        <ele>211</ele>
        <time>2020-02-19T19:34:54Z</time>
      </trkpt>
      <trkpt lat="43.31236" lon="2.47883">
        <ele>212</ele>
        <time>2020-02-19T19:35:59Z</time>
      </trkpt>
      <trkpt lat="43.31313" lon="2.47665">
        <ele>215</ele>
        <time>2020-02-19T19:39:55Z</time>
      </trkpt>
      <trkpt lat="43.31365" lon="2.47511">
        <ele>214</ele>
        <time>2020-02-19T19:42:39Z</time>
      </trkpt>
      <trkpt lat="43.31428" lon="2.47243">
        <ele>211</ele>
        <time>2020-02-19T19:47:13Z</time>
      </trkpt>
      <trkpt lat="43.31428" lon="2.4708">
        <ele>207</ele>
        <time>2020-02-19T19:49:51Z</time>
      </trkpt>
      <trkpt lat="43.31424" lon="2.4684">
        <ele>205</ele>
        <time>2020-02-19T19:53:44Z</time>
      </trkpt>
      <trkpt lat="43.31429" lon="2.46491">
        <ele>199</ele>
        <time>2020-02-19T19:59:23Z</time>
      </trkpt>
      <trkpt lat="43.3148" lon="2.46368">
        <ele>198</ele>
        <time>2020-02-19T20:01:41Z</time>
      </trkpt>
      <trkpt lat="43.31535" lon="2.46364">
        <ele>200</ele>
        <time>2020-02-19T20:02:54Z</time>
      </trkpt>
    </trkseg>
  </trk>
</gpx>